Time;durP1;ratioP1;P1;durP2;ratioP2;P2;SDS_P1;SDS_P2;PMS_P1;PMS_P2;Temp;Humidity;BMP_temperature;BMP_pressure;BME280_temperature;BME280_humidity;BME280_pressure;Samples;Min_cycle;Max_cycle;Signal;HPM_P1;HPM_P2
2022/04/09 00:00:31;;;;;;;8.43;2.28;;;4.30;99.90;;;;;;5052369;28;20105;-49
2022/04/09 00:02:57;;;;;;;12.30;2.10;;;4.20;99.90;;;;;;5052653;28;20044;-49
2022/04/09 00:05:23;;;;;;;11.00;1.92;;;4.20;99.90;;;;;;5069482;28;20409;-51
2022/04/09 00:07:49;;;;;;;10.57;2.50;;;4.20;99.90;;;;;;5073345;28;20481;-50
2022/04/09 00:10:16;;;;;;;12.07;2.30;;;4.10;99.90;;;;;;5073135;28;20066;-49
2022/04/09 00:12:45;;;;;;;14.52;2.08;;;4.10;99.90;;;;;;5072750;28;20072;-49
2022/04/09 00:15:12;;;;;;;12.75;2.42;;;4.20;99.90;;;;;;5072492;28;20109;-50
2022/04/09 00:17:42;;;;;;;9.30;1.58;;;4.20;99.90;;;;;;5072830;28;20049;-53
2022/04/09 00:20:09;;;;;;;10.45;1.73;;;4.10;99.90;;;;;;5072604;28;20043;-49
2022/04/09 00:22:36;;;;;;;10.65;2.17;;;4.20;99.90;;;;;;5072021;28;20071;-52
2022/04/09 00:25:04;;;;;;;9.60;2.03;;;4.20;99.90;;;;;;5052544;28;20064;-49
2022/04/09 00:27:30;;;;;;;10.60;1.88;;;4.10;99.90;;;;;;5051974;28;20048;-50
2022/04/09 00:29:56;;;;;;;10.57;1.92;;;4.20;99.90;;;;;;5051990;28;20036;-49
2022/04/09 00:32:21;;;;;;;10.43;1.90;;;4.40;99.90;;;;;;5052022;28;20564;-50
2022/04/09 00:34:47;;;;;;;9.52;1.70;;;4.20;99.90;;;;;;5052154;28;20044;-50
2022/04/09 00:37:13;;;;;;;8.32;1.55;;;4.30;99.90;;;;;;5052241;28;20033;-49
2022/04/09 00:39:39;;;;;;;8.90;1.70;;;4.30;99.90;;;;;;5052040;28;20366;-50
2022/04/09 00:42:05;;;;;;;7.65;1.52;;;4.30;99.90;;;;;;5051921;28;20064;-50
2022/04/09 00:44:33;;;;;;;7.70;1.77;;;4.20;99.90;;;;;;5051901;28;20048;-52
2022/04/09 00:46:59;;;;;;;7.47;1.30;;;4.20;99.90;;;;;;5050870;28;20166;-52
2022/04/09 00:49:28;;;;;;;7.25;1.73;;;4.10;99.90;;;;;;5052116;28;20112;-49
2022/04/09 00:51:55;;;;;;;9.38;1.55;;;4.20;99.90;;;;;;5051841;28;20041;-49
2022/04/09 00:54:24;;;;;;;7.75;1.25;;;4.10;99.90;;;;;;5051983;28;20509;-49
2022/04/09 00:56:51;;;;;;;8.75;1.45;;;4.30;99.90;;;;;;5051744;28;20047;-50
2022/04/09 00:59:21;;;;;;;8.45;1.63;;;4.20;99.90;;;;;;5051725;28;20497;-51
2022/04/09 01:01:48;;;;;;;8.70;1.77;;;4.10;99.90;;;;;;5051817;28;20083;-51
2022/04/09 01:04:14;;;;;;;8.95;1.55;;;4.10;99.90;;;;;;5058756;28;20048;-49
2022/04/09 01:06:39;;;;;;;9.43;2.25;;;3.90;99.90;;;;;;5071742;28;20048;-49
2022/04/09 01:09:07;;;;;;;9.30;1.95;;;3.90;99.90;;;;;;5071792;28;20087;-49
2022/04/09 01:11:34;;;;;;;5.35;1.50;;;4.00;99.90;;;;;;5070495;28;20079;-49
2022/04/09 01:14:00;;;;;;;6.82;1.58;;;3.90;99.90;;;;;;5071697;28;20048;-49
2022/04/09 01:16:29;;;;;;;11.27;1.80;;;3.80;99.90;;;;;;5071597;28;20493;-49
2022/04/09 01:18:59;;;;;;;6.72;2.60;;;3.80;99.90;;;;;;5071704;28;20048;-49
2022/04/09 01:21:25;;;;;;;9.30;1.67;;;3.90;99.90;;;;;;5071695;28;20087;-50
2022/04/09 01:23:51;;;;;;;11.43;1.65;;;3.80;99.90;;;;;;5061613;28;20045;-49
2022/04/09 01:26:18;;;;;;;6.53;1.27;;;3.90;99.90;;;;;;5051767;28;20262;-49
2022/04/09 01:28:44;;;;;;;8.52;1.50;;;3.80;99.90;;;;;;5067017;28;20041;-51
2022/04/09 01:31:10;;;;;;;8.65;1.63;;;3.80;99.90;;;;;;5050214;28;20123;-51
2022/04/09 01:33:37;;;;;;;11.70;1.77;;;3.80;99.90;;;;;;5051031;28;20129;-51
2022/04/09 01:36:03;;;;;;;10.35;1.60;;;3.70;99.90;;;;;;5051341;28;20049;-53
2022/04/09 01:38:28;;;;;;;11.75;2.28;;;3.70;99.90;;;;;;5051405;28;20095;-50
2022/04/09 01:40:54;;;;;;;9.85;1.48;;;3.80;99.90;;;;;;5051767;28;20041;-49
2022/04/09 01:43:21;;;;;;;11.68;2.08;;;3.70;99.90;;;;;;5054292;28;20033;-49
2022/04/09 01:45:47;;;;;;;7.97;1.60;;;3.70;99.90;;;;;;5053582;28;20052;-52
2022/04/09 01:48:13;;;;;;;8.32;1.55;;;3.80;99.90;;;;;;5054749;28;20037;-51
2022/04/09 01:50:39;;;;;;;9.15;1.65;;;3.70;99.90;;;;;;5054726;28;20163;-49
2022/04/09 01:53:05;;;;;;;8.90;1.48;;;3.70;99.90;;;;;;5053457;28;20099;-52
2022/04/09 01:55:32;;;;;;;6.65;1.48;;;3.70;99.90;;;;;;5054771;28;20037;-49
2022/04/09 01:57:58;;;;;;;6.15;1.70;;;3.60;99.90;;;;;;5054850;28;20037;-49
2022/04/09 02:00:24;;;;;;;7.47;1.63;;;3.50;99.90;;;;;;5054659;28;20055;-49
2022/04/09 02:02:51;;;;;;;10.48;1.80;;;3.40;99.90;;;;;;5054453;28;20405;-50
2022/04/09 02:05:18;;;;;;;9.40;1.63;;;3.60;99.90;;;;;;5069976;28;20041;-49
2022/04/09 02:07:45;;;;;;;13.48;2.78;;;3.50;99.90;;;;;;5054495;28;20041;-50
2022/04/09 02:10:11;;;;;;;12.80;2.10;;;3.60;99.90;;;;;;5053240;28;20266;-49
2022/04/09 02:12:38;;;;;;;12.07;2.47;;;3.70;99.90;;;;;;5054615;28;20041;-53
2022/04/09 02:15:06;;;;;;;8.95;1.92;;;3.50;99.90;;;;;;5054498;28;20033;-50
2022/04/09 02:17:31;;;;;;;8.27;1.73;;;3.60;99.90;;;;;;5054410;28;20037;-49
2022/04/09 02:19:57;;;;;;;7.18;1.60;;;3.70;99.90;;;;;;5054445;28;20398;-49
2022/04/09 02:22:23;;;;;;;12.23;1.77;;;3.70;99.90;;;;;;5054340;28;20095;-49
2022/04/09 02:24:52;;;;;;;6.70;1.90;;;3.70;99.90;;;;;;5054139;28;20440;-49
2022/04/09 02:27:18;;;;;;;8.18;1.85;;;3.90;99.90;;;;;;5054427;28;20107;-50
2022/04/09 02:29:46;;;;;;;11.43;1.65;;;4.00;99.90;;;;;;5054169;28;20044;-50
2022/04/09 02:32:12;;;;;;;8.73;1.40;;;4.00;99.90;;;;;;5052984;28;20048;-52
2022/04/09 02:34:37;;;;;;;11.55;3.33;;;4.00;99.90;;;;;;5054443;28;20048;-51
2022/04/09 02:37:05;;;;;;;10.05;2.28;;;4.00;99.90;;;;;;5054361;28;20122;-51
2022/04/09 02:39:31;;;;;;;8.10;1.65;;;4.00;99.90;;;;;;5053991;28;20047;-49
2022/04/09 02:41:57;;;;;;;10.32;1.80;;;4.00;99.90;;;;;;5052713;28;20405;-51
2022/04/09 02:44:24;;;;;;;11.75;2.35;;;3.90;99.90;;;;;;5054157;28;20048;-50
2022/04/09 02:46:50;;;;;;;12.52;2.30;;;3.90;99.90;;;;;;5052660;28;20044;-53
2022/04/09 02:49:16;;;;;;;8.10;1.52;;;4.00;99.90;;;;;;5053753;28;20048;-50
2022/04/09 02:51:43;;;;;;;10.85;1.90;;;4.00;99.90;;;;;;5053763;28;20505;-49
2022/04/09 02:54:15;;;;;;;9.45;2.00;;;4.00;99.90;;;;;;5053404;28;20044;-50
2022/04/09 02:56:42;;;;;;;10.18;1.67;;;4.00;99.90;;;;;;5053839;28;20144;-50
2022/04/09 02:59:09;;;;;;;8.05;1.67;;;4.00;99.90;;;;;;5053670;28;20112;-50
2022/04/09 03:01:35;;;;;;;11.15;1.50;;;3.90;99.90;;;;;;5053484;28;20489;-49
2022/04/09 03:04:01;;;;;;;9.68;1.65;;;3.70;99.90;;;;;;5058994;28;20739;-49
2022/04/09 03:06:27;;;;;;;5.72;1.33;;;3.60;99.90;;;;;;5073806;28;20040;-51
2022/04/09 03:08:53;;;;;;;5.15;1.13;;;3.50;99.90;;;;;;5073412;28;20043;-52
2022/04/09 03:11:18;;;;;;;5.68;1.67;;;3.40;99.90;;;;;;5073667;28;20131;-49
2022/04/09 03:13:44;;;;;;;7.13;1.02;;;3.40;99.90;;;;;;5073474;28;20396;-50
2022/04/09 03:16:10;;;;;;;6.03;1.30;;;3.30;99.90;;;;;;5073325;28;20101;-49
2022/04/09 03:18:35;;;;;;;10.73;1.33;;;3.40;99.90;;;;;;5071916;28;20048;-49
2022/04/09 03:21:01;;;;;;;8.93;1.50;;;3.40;99.90;;;;;;5073072;28;20041;-54
2022/04/09 03:23:26;;;;;;;7.70;1.30;;;3.30;99.90;;;;;;5066665;28;20065;-53
2022/04/09 03:25:52;;;;;;;5.60;1.40;;;3.30;99.90;;;;;;5052958;28;20095;-51
2022/04/09 03:28:18;;;;;;;9.35;1.65;;;3.30;99.90;;;;;;5053119;28;20048;-49
2022/04/09 03:30:44;;;;;;;6.50;1.50;;;3.30;99.90;;;;;;5053151;28;20032;-49
2022/04/09 03:33:10;;;;;;;7.03;1.30;;;3.40;99.90;;;;;;5052964;28;20401;-49
2022/04/09 03:35:36;;;;;;;10.05;2.22;;;3.30;99.90;;;;;;5053168;28;20037;-49
2022/04/09 03:38:02;;;;;;;14.15;3.47;;;3.40;99.90;;;;;;5053142;28;20375;-50
2022/04/09 03:40:28;;;;;;;8.85;1.73;;;3.20;99.90;;;;;;5052810;28;20037;-51
2022/04/09 03:42:53;;;;;;;7.70;1.50;;;3.20;99.90;;;;;;5068156;28;20425;-50
2022/04/09 03:45:19;;;;;;;11.60;2.35;;;3.20;99.90;;;;;;5052673;28;20504;-56
2022/04/09 03:47:45;;;;;;;15.02;1.75;;;3.20;99.90;;;;;;5052697;28;20047;-51
2022/04/09 03:50:11;;;;;;;7.97;1.60;;;3.10;99.90;;;;;;5053059;28;20401;-52
2022/04/09 03:52:38;;;;;;;8.25;1.70;;;3.10;99.90;;;;;;5052638;28;20091;-50
2022/04/09 03:55:04;;;;;;;10.70;2.33;;;3.00;99.90;;;;;;5052677;28;20037;-53
2022/04/09 03:57:31;;;;;;;8.30;1.60;;;3.10;99.90;;;;;;5052588;28;20404;-49
2022/04/09 03:59:57;;;;;;;7.38;1.88;;;3.10;99.90;;;;;;5052470;28;20041;-49
2022/04/09 04:02:23;;;;;;;7.65;2.20;;;3.10;99.90;;;;;;5051164;28;20045;-49
2022/04/09 04:04:49;;;;;;;7.88;1.77;;;3.20;99.90;;;;;;5051819;28;20041;-49
2022/04/09 04:07:20;;;;;;;15.80;4.13;;;3.30;99.90;;;;;;5034793;28;20068;-50
2022/04/09 04:09:46;;;;;;;8.80;1.75;;;3.40;99.90;;;;;;5052438;28;20045;-49
2022/04/09 04:12:12;;;;;;;12.32;2.00;;;3.40;99.90;;;;;;5052363;28;20051;-49
2022/04/09 04:14:37;;;;;;;14.60;1.90;;;3.40;99.90;;;;;;5052038;28;20040;-49
2022/04/09 04:17:03;;;;;;;11.38;1.42;;;3.50;99.90;;;;;;5050856;28;20167;-49
2022/04/09 04:19:29;;;;;;;11.00;1.88;;;3.40;99.90;;;;;;5052151;28;20048;-49
2022/04/09 04:21:55;;;;;;;10.88;2.15;;;3.50;99.90;;;;;;5050904;28;20048;-49
2022/04/09 04:24:26;;;;;;;11.30;1.65;;;3.30;99.90;;;;;;5051729;28;20094;-51
2022/04/09 04:26:53;;;;;;;26.05;4.65;;;3.40;99.90;;;;;;5052106;28;20049;-51
2022/04/09 04:29:19;;;;;;;11.95;3.22;;;3.20;99.90;;;;;;5052038;28;20636;-49
2022/04/09 04:31:44;;;;;;;14.55;2.63;;;3.40;99.90;;;;;;5052192;28;20465;-50
2022/04/09 04:34:10;;;;;;;7.60;1.63;;;3.30;99.90;;;;;;5050766;28;20434;-49
2022/04/09 04:36:35;;;;;;;14.90;2.00;;;3.20;99.90;;;;;;5050878;28;20040;-48
2022/04/09 04:39:01;;;;;;;11.77;1.80;;;3.20;99.90;;;;;;5050843;28;20083;-51
2022/04/09 04:41:28;;;;;;;12.82;1.80;;;3.10;99.90;;;;;;5050465;28;20045;-51
2022/04/09 04:43:54;;;;;;;10.43;2.92;;;3.10;99.90;;;;;;5050534;28;20041;-48
2022/04/09 04:46:20;;;;;;;11.98;2.03;;;3.10;99.90;;;;;;5050660;28;20045;-48
2022/04/09 04:48:49;;;;;;;13.20;1.63;;;3.00;99.90;;;;;;5049227;28;20041;-51
2022/04/09 04:51:14;;;;;;;8.63;2.33;;;3.10;99.90;;;;;;5050686;28;20101;-48
2022/04/09 04:53:40;;;;;;;10.43;1.92;;;3.10;99.90;;;;;;5032601;28;20052;-48
2022/04/09 04:56:06;;;;;;;10.60;2.00;;;3.00;99.90;;;;;;5050507;28;20052;-49
2022/04/09 04:58:32;;;;;;;12.80;2.05;;;3.10;99.90;;;;;;5049369;28;20098;-50
2022/04/09 05:00:57;;;;;;;12.15;1.88;;;3.00;99.90;;;;;;5050543;28;20049;-49
2022/04/09 05:03:23;;;;;;;10.40;1.60;;;3.00;99.90;;;;;;5049316;28;20049;-49
2022/04/09 05:05:49;;;;;;;9.50;2.03;;;3.10;99.90;;;;;;5070265;28;20043;-49
2022/04/09 05:08:14;;;;;;;11.15;1.58;;;3.10;99.90;;;;;;5070381;28;20036;-50
2022/04/09 05:10:40;;;;;;;9.70;1.70;;;3.10;99.90;;;;;;5068770;28;20051;-51
2022/04/09 05:13:06;;;;;;;8.57;1.50;;;3.30;99.90;;;;;;5068889;28;20118;-52
2022/04/09 05:15:32;;;;;;;12.52;2.47;;;3.30;99.90;;;;;;5070418;28;20047;-50
2022/04/09 05:18:00;;;;;;;10.65;1.95;;;3.30;99.90;;;;;;5074131;28;20464;-51
2022/04/09 05:20:26;;;;;;;13.27;2.00;;;3.20;99.90;;;;;;5059340;28;20044;-50
2022/04/09 05:22:52;;;;;;;9.27;1.75;;;3.40;99.90;;;;;;5053062;28;20052;-52
2022/04/09 05:25:19;;;;;;;10.88;1.98;;;3.40;99.90;;;;;;5033947;28;20050;-53
2022/04/09 05:27:46;;;;;;;7.93;1.70;;;3.30;99.90;;;;;;5033812;28;20045;-51
2022/04/09 05:30:12;;;;;;;10.95;2.08;;;3.30;99.90;;;;;;5034145;28;20441;-52
2022/04/09 05:32:39;;;;;;;15.55;2.15;;;3.30;99.90;;;;;;5033998;28;20041;-48
2022/04/09 05:35:06;;;;;;;8.50;1.80;;;3.30;99.90;;;;;;5033904;28;20041;-52
2022/04/09 05:37:32;;;;;;;18.35;3.45;;;3.40;99.90;;;;;;5033824;28;20072;-49
2022/04/09 05:39:58;;;;;;;14.63;2.22;;;3.30;99.90;;;;;;5033703;28;20111;-49
2022/04/09 05:42:25;;;;;;;10.07;1.75;;;3.30;99.90;;;;;;5034221;28;20051;-49
2022/04/09 05:44:52;;;;;;;9.18;2.33;;;3.20;99.90;;;;;;5032519;28;20085;-51
2022/04/09 05:47:18;;;;;;;5.13;1.15;;;2.90;99.90;;;;;;5033895;28;20037;-51
2022/04/09 05:49:44;;;;;;;6.30;1.05;;;2.80;99.90;;;;;;5033598;28;20452;-50
2022/04/09 05:52:10;;;;;;;5.72;1.40;;;2.70;99.90;;;;;;5033917;28;20502;-49
2022/04/09 05:54:35;;;;;;;8.18;1.52;;;2.50;99.90;;;;;;5033539;28;20049;-49
2022/04/09 05:57:02;;;;;;;6.63;1.25;;;2.60;99.90;;;;;;5049902;28;20037;-48
2022/04/09 05:59:30;;;;;;;7.57;1.58;;;2.90;99.90;;;;;;5034031;28;20112;-49
2022/04/09 06:01:56;;;;;;;11.43;1.95;;;3.40;99.90;;;;;;5033602;28;20158;-50
2022/04/09 06:04:22;;;;;;;9.63;1.73;;;3.20;99.90;;;;;;5050105;28;20047;-48
2022/04/09 06:06:48;;;;;;;12.25;2.10;;;3.30;99.90;;;;;;5073583;28;20029;-49
2022/04/09 06:09:15;;;;;;;12.23;3.42;;;3.20;99.90;;;;;;5073548;28;20060;-49
2022/04/09 06:11:41;;;;;;;14.43;2.80;;;3.50;99.90;;;;;;5074213;28;20340;-50
2022/04/09 06:14:08;;;;;;;11.88;2.22;;;3.00;99.90;;;;;;5073088;28;20040;-51
2022/04/09 06:16:38;;;;;;;11.65;1.88;;;3.20;99.90;;;;;;5072913;28;20444;-48
2022/04/09 06:19:07;;;;;;;12.30;3.15;;;3.90;99.90;;;;;;5071613;28;20123;-48
2022/04/09 06:21:33;;;;;;;18.95;2.88;;;4.00;99.90;;;;;;5072709;28;20463;-48
2022/04/09 06:24:03;;;;;;;17.83;2.60;;;3.70;99.90;;;;;;5060254;28;20045;-48
2022/04/09 06:26:29;;;;;;;12.27;3.55;;;4.20;99.90;;;;;;5052472;28;20049;-49
2022/04/09 06:28:55;;;;;;;21.02;2.88;;;4.50;99.90;;;;;;5051848;28;20528;-49
2022/04/09 06:31:21;;;;;;;15.93;2.28;;;4.40;99.90;;;;;;5051449;28;20036;-49
2022/04/09 06:33:47;;;;;;;10.05;2.20;;;4.50;99.90;;;;;;5052587;28;20045;-51
2022/04/09 06:36:13;;;;;;;12.23;2.03;;;4.20;99.90;;;;;;5052492;28;20055;-51
2022/04/09 06:38:38;;;;;;;15.50;2.80;;;4.50;99.90;;;;;;5052356;28;20049;-50
2022/04/09 06:41:04;;;;;;;12.45;2.25;;;4.20;99.90;;;;;;5052602;28;20399;-49
2022/04/09 06:43:30;;;;;;;14.93;2.33;;;4.20;99.90;;;;;;5052412;28;20584;-52
2022/04/09 06:45:56;;;;;;;14.27;2.17;;;4.50;99.90;;;;;;5052483;28;20435;-53
2022/04/09 06:48:22;;;;;;;14.00;2.53;;;4.30;99.90;;;;;;5051086;28;20063;-50
2022/04/09 06:50:48;;;;;;;8.95;1.92;;;4.50;99.90;;;;;;5052261;28;20033;-48
2022/04/09 06:53:14;;;;;;;15.38;2.15;;;4.60;99.90;;;;;;5052216;28;20045;-50
2022/04/09 06:55:41;;;;;;;10.93;1.83;;;4.70;99.90;;;;;;5052031;28;20037;-51
2022/04/09 06:58:07;;;;;;;8.88;1.73;;;4.90;99.90;;;;;;5052279;28;20049;-50
2022/04/09 07:00:33;;;;;;;11.95;2.58;;;5.30;99.90;;;;;;5052181;28;20094;-51
2022/04/09 07:03:00;;;;;;;9.15;2.17;;;5.30;99.90;;;;;;5051849;28;20084;-50
2022/04/09 07:05:26;;;;;;;9.07;1.73;;;5.30;99.90;;;;;;5068941;28;20040;-51
2022/04/09 07:07:52;;;;;;;13.07;1.77;;;5.20;99.90;;;;;;5071975;28;20076;-48
2022/04/09 07:10:18;;;;;;;13.07;1.95;;;5.20;99.90;;;;;;5070651;28;20083;-49
2022/04/09 07:12:44;;;;;;;11.75;1.88;;;5.60;99.90;;;;;;5051352;28;20117;-50
2022/04/09 07:15:10;;;;;;;10.70;1.63;;;5.70;99.90;;;;;;5031994;28;20536;-48
2022/04/09 07:17:37;;;;;;;7.50;1.48;;;5.90;99.90;;;;;;5031803;28;20044;-48
2022/04/09 07:20:05;;;;;;;14.65;2.20;;;5.70;99.90;;;;;;5031802;28;20046;-49
2022/04/09 07:22:33;;;;;;;10.88;2.03;;;5.90;99.90;;;;;;5030652;28;20440;-49
2022/04/09 07:24:59;;;;;;;11.02;1.55;;;5.90;99.90;;;;;;5031780;28;20054;-49
2022/04/09 07:27:35;;;;;;;7.22;1.38;;;5.90;99.90;;;;;;5031711;28;20386;-51
2022/04/09 07:30:02;;;;;;;11.73;2.10;;;5.80;99.90;;;;;;5031558;28;20049;-48
2022/04/09 07:32:27;;;;;;;13.93;3.00;;;5.80;99.90;;;;;;5031551;28;20033;-51
2022/04/09 07:34:53;;;;;;;13.63;3.22;;;6.00;99.90;;;;;;5031590;28;20393;-51
2022/04/09 07:37:19;;;;;;;9.05;2.15;;;6.10;99.90;;;;;;5031603;28;20435;-48
2022/04/09 07:39:45;;;;;;;14.18;2.20;;;5.70;99.90;;;;;;5030554;28;20132;-49
2022/04/09 07:42:10;;;;;;;9.80;1.58;;;5.40;99.90;;;;;;5031409;28;20129;-49
2022/04/09 07:44:36;;;;;;;13.98;1.98;;;5.80;99.90;;;;;;5031291;28;20053;-49
2022/04/09 07:47:02;;;;;;;14.07;3.30;;;6.00;99.90;;;;;;5029952;28;20034;-50
2022/04/09 07:49:27;;;;;;;15.57;1.90;;;6.10;99.90;;;;;;5031130;28;20037;-49
2022/04/09 07:51:54;;;;;;;11.48;2.42;;;6.20;99.90;;;;;;5029181;28;20410;-52
2022/04/09 07:54:20;;;;;;;15.88;2.65;;;6.30;99.90;;;;;;5030931;28;20041;-50
2022/04/09 07:56:46;;;;;;;13.27;2.50;;;6.20;99.90;;;;;;5030886;28;20102;-50
2022/04/09 07:59:12;;;;;;;13.98;2.20;;;6.50;99.90;;;;;;5031090;28;20037;-48
2022/04/09 08:01:38;;;;;;;13.95;1.95;;;6.70;99.90;;;;;;5030943;28;20393;-51
2022/04/09 08:04:04;;;;;;;13.80;2.22;;;6.70;99.90;;;;;;5042149;28;20043;-49
2022/04/09 08:06:29;;;;;;;11.60;3.55;;;6.70;99.90;;;;;;5069692;28;20092;-51
2022/04/09 08:08:55;;;;;;;11.23;1.65;;;6.90;99.90;;;;;;5070754;28;20044;-48
2022/04/09 08:11:20;;;;;;;10.38;1.90;;;7.00;99.90;;;;;;5052925;28;20051;-52
2022/04/09 08:13:46;;;;;;;12.30;2.05;;;7.10;99.90;;;;;;5069484;28;20049;-52
2022/04/09 08:16:12;;;;;;;11.57;2.35;;;7.20;99.90;;;;;;5070828;28;20036;-49
2022/04/09 08:18:39;;;;;;;13.00;2.05;;;7.20;99.90;;;;;;5070729;28;20664;-49
2022/04/09 08:21:06;;;;;;;12.70;2.25;;;7.00;99.90;;;;;;5070799;28;20048;-48
2022/04/09 08:23:32;;;;;;;10.73;2.20;;;6.80;99.90;;;;;;5063481;28;20041;-50
2022/04/09 08:25:58;;;;;;;8.00;2.15;;;6.90;99.90;;;;;;5065758;28;20135;-51
2022/04/09 08:28:26;;;;;;;10.57;1.90;;;7.10;99.90;;;;;;5050693;28;20071;-49
2022/04/09 08:30:52;;;;;;;10.52;2.22;;;7.20;99.90;;;;;;5049814;28;20527;-49
2022/04/09 08:33:19;;;;;;;11.57;2.05;;;7.30;99.90;;;;;;5039727;28;20066;-49
2022/04/09 08:35:44;;;;;;;12.90;2.05;;;7.60;99.90;;;;;;5039824;28;20036;-48
2022/04/09 08:38:10;;;;;;;8.93;1.73;;;7.50;99.90;;;;;;5041177;28;20056;-50
2022/04/09 08:40:37;;;;;;;14.10;2.25;;;7.40;99.90;;;;;;5046219;28;20064;-48
2022/04/09 08:43:04;;;;;;;12.95;2.22;;;7.50;99.90;;;;;;5041591;28;20057;-49
2022/04/09 08:45:35;;;;;;;5.93;1.20;;;7.60;99.90;;;;;;5038772;28;20029;-53
2022/04/09 08:48:02;;;;;;;7.07;1.40;;;7.00;99.90;;;;;;5039713;28;20046;-49
2022/04/09 08:50:28;;;;;;;6.28;1.17;;;6.20;99.90;;;;;;5039325;28;20521;-51
2022/04/09 08:52:54;;;;;;;4.20;1.10;;;5.50;99.90;;;;;;5054060;28;20044;-50
2022/04/09 08:55:20;;;;;;;7.53;1.20;;;5.20;99.90;;;;;;5045516;28;20489;-56
2022/04/09 08:57:48;;;;;;;11.57;2.70;;;5.20;99.90;;;;;;5036183;28;20049;-58
2022/04/09 09:00:17;;;;;;;7.45;1.88;;;5.00;99.90;;;;;;5041985;28;20127;-56
2022/04/09 09:02:50;;;;;;;10.32;1.58;;;5.00;99.90;;;;;;5040551;28;20045;-57
2022/04/09 09:05:32;;;;;;;7.70;1.15;;;5.30;99.90;;;;;;5039580;28;20169;-57
2022/04/09 09:07:58;;;;;;;8.45;2.50;;;5.50;99.90;;;;;;5039004;28;20163;-57
2022/04/09 09:10:24;;;;;;;8.05;1.02;;;5.90;99.90;;;;;;5040068;28;20133;-57
2022/04/09 09:13:05;;;;;;;5.05;1.15;;;5.90;99.90;;;;;;5032882;28;21109;-57
2022/04/09 09:15:55;;;;;;;4.03;0.98;;;6.30;99.90;;;;;;5034096;28;20048;-59
2022/04/09 09:18:26;;;;;;;7.07;1.45;;;6.30;99.90;;;;;;5039820;28;20124;-59
2022/04/09 09:20:58;;;;;;;13.05;1.60;;;6.80;99.90;;;;;;5035343;28;20158;-58
2022/04/09 09:23:32;;;;;;;10.70;1.67;;;7.10;99.90;;;;;;5034871;28;20472;-57
2022/04/09 09:25:59;;;;;;;10.52;2.53;;;7.30;99.90;;;;;;5037539;28;20076;-58
2022/04/09 09:28:27;;;;;;;14.30;2.45;;;7.40;99.90;;;;;;5034602;28;20041;-56
2022/04/09 09:30:54;;;;;;;10.80;1.88;;;7.90;99.90;;;;;;5035469;28;20119;-55
2022/04/09 09:33:20;;;;;;;9.75;1.30;;;7.90;99.90;;;;;;5052469;28;20044;-55
2022/04/09 09:35:56;;;;;;;13.07;2.35;;;6.70;99.90;;;;;;5054231;28;20036;-54
2022/04/09 09:38:31;;;;;;;10.25;1.83;;;5.20;99.90;;;;;;5053781;28;20033;-57
2022/04/09 09:40:58;;;;;;;5.65;1.17;;;4.50;99.90;;;;;;5053761;28;20198;-56
2022/04/09 09:43:26;;;;;;;7.38;1.02;;;4.50;99.90;;;;;;5053676;28;20081;-54
2022/04/09 09:45:53;;;;;;;3.60;0.70;;;4.50;99.90;;;;;;5053877;28;20033;-52
2022/04/09 09:48:21;;;;;;;1.73;0.60;;;4.70;99.90;;;;;;5052604;28;20481;-51
2022/04/09 09:50:48;;;;;;;2.17;0.45;;;4.60;99.90;;;;;;5053515;28;20033;-52
2022/04/09 09:53:14;;;;;;;1.98;0.47;;;4.60;99.90;;;;;;5054377;28;20473;-54
2022/04/09 09:55:46;;;;;;;2.30;0.60;;;4.90;99.90;;;;;;5053997;28;20043;-52
2022/04/09 09:58:18;;;;;;;2.20;0.70;;;4.70;99.90;;;;;;5053395;28;20102;-51
2022/04/09 10:00:44;;;;;;;3.15;0.70;;;4.90;99.90;;;;;;5054222;28;20432;-50
2022/04/09 10:03:14;;;;;;;4.38;0.60;;;4.90;99.90;;;;;;5052960;28;20091;-48
2022/04/09 10:05:42;;;;;;;1.70;0.70;;;5.10;99.90;;;;;;5053900;28;20033;-52
2022/04/09 10:08:09;;;;;;;4.13;0.82;;;5.40;99.90;;;;;;5054569;28;20037;-49
2022/04/09 10:10:37;;;;;;;2.05;0.70;;;5.60;99.90;;;;;;5054319;28;20037;-50
2022/04/09 10:13:07;;;;;;;4.70;1.00;;;5.70;99.90;;;;;;5054410;28;20504;-50
2022/04/09 10:15:33;;;;;;;7.18;1.17;;;5.90;99.90;;;;;;5054269;28;20045;-51
2022/04/09 10:18:00;;;;;;;5.93;0.80;;;6.10;99.90;;;;;;5053232;28;20044;-51
2022/04/09 10:20:28;;;;;;;5.57;1.20;;;6.30;99.90;;;;;;5054436;28;20128;-51
2022/04/09 10:22:59;;;;;;;7.22;1.58;;;6.30;99.90;;;;;;5054151;28;20087;-50
2022/04/09 10:25:28;;;;;;;6.15;1.20;;;6.30;99.90;;;;;;5053928;28;20144;-49
2022/04/09 10:28:01;;;;;;;3.95;0.93;;;6.50;99.90;;;;;;5054217;28;20056;-49
2022/04/09 10:30:28;;;;;;;9.75;1.58;;;6.50;99.90;;;;;;5054180;28;20076;-48
2022/04/09 10:32:59;;;;;;;6.13;1.00;;;6.60;99.90;;;;;;5054630;28;20052;-48
2022/04/09 10:35:26;;;;;;;4.22;0.65;;;6.60;99.90;;;;;;5054065;28;20045;-48
2022/04/09 10:38:07;;;;;;;6.35;1.13;;;6.30;99.90;;;;;;5052593;28;20044;-48
2022/04/09 10:40:36;;;;;;;4.78;0.85;;;5.90;99.90;;;;;;5053969;28;20037;-49
2022/04/09 10:43:04;;;;;;;3.55;0.88;;;6.20;99.90;;;;;;5053879;28;20063;-52
2022/04/09 10:45:34;;;;;;;4.65;1.00;;;6.40;99.90;;;;;;5052469;28;20102;-50
2022/04/09 10:48:14;;;;;;;8.02;1.30;;;6.50;99.90;;;;;;5053899;28;20390;-50
2022/04/09 10:51:06;;;;;;;6.68;1.45;;;6.60;99.90;;;;;;5053596;28;20335;-53
2022/04/09 10:53:38;;;;;;;5.80;1.30;;;6.90;99.90;;;;;;5053818;28;20280;-51
2022/04/09 10:56:30;;;;;;;8.00;1.40;;;7.20;99.90;;;;;;5052345;28;20528;-53
2022/04/09 10:59:05;;;;;;;7.68;1.25;;;7.20;99.90;;;;;;5052403;28;20519;-49
2022/04/09 11:01:46;;;;;;;5.18;1.02;;;7.20;99.90;;;;;;5053817;28;20045;-50
2022/04/09 11:04:31;;;;;;;9.27;1.52;;;7.40;99.90;;;;;;5060178;28;20512;-51
2022/04/09 11:07:01;;;;;;;7.57;1.33;;;7.30;99.90;;;;;;5073475;28;20119;-49
2022/04/09 11:09:40;;;;;;;10.63;2.65;;;7.20;99.90;;;;;;5073598;28;20076;-49
2022/04/09 11:12:06;;;;;;;6.68;1.23;;;7.00;99.90;;;;;;5073531;28;20449;-54
2022/04/09 11:14:42;;;;;;;7.60;1.20;;;7.00;99.90;;;;;;5073317;28;20098;-50
2022/04/09 11:17:36;;;;;;;6.10;1.15;;;7.10;99.90;;;;;;5073290;28;20133;-51
2022/04/09 11:20:10;;;;;;;6.90;1.40;;;7.50;99.90;;;;;;5073367;28;20044;-50
2022/04/09 11:22:38;;;;;;;9.82;1.88;;;7.80;99.90;;;;;;5073327;28;20101;-51
2022/04/09 11:25:06;;;;;;;8.63;1.50;;;7.70;99.90;;;;;;5053110;28;20045;-50
2022/04/09 11:27:33;;;;;;;11.20;1.95;;;7.20;99.90;;;;;;5068676;28;20053;-49
2022/04/09 11:29:59;;;;;;;6.88;1.80;;;7.20;99.90;;;;;;5053420;28;20037;-52
2022/04/09 11:32:26;;;;;;;11.38;1.40;;;7.60;99.90;;;;;;5053119;28;20405;-53
2022/04/09 11:34:58;;;;;;;9.65;1.30;;;7.90;99.90;;;;;;5053197;28;20072;-49
2022/04/09 11:37:37;;;;;;;9.27;2.03;;;8.10;99.90;;;;;;5053083;28;20044;-50
2022/04/09 11:40:07;;;;;;;9.27;1.70;;;8.40;99.90;;;;;;5052749;28;20496;-49
2022/04/09 11:43:02;;;;;;;8.75;1.38;;;8.30;99.90;;;;;;5068307;28;20049;-52
2022/04/09 11:45:31;;;;;;;9.25;1.30;;;7.80;99.90;;;;;;5047884;28;20065;-52
2022/04/09 11:48:01;;;;;;;9.15;1.60;;;7.70;99.90;;;;;;5067999;28;20508;-53
2022/04/09 11:50:31;;;;;;;11.98;1.30;;;7.30;99.90;;;;;;5052607;28;20051;-50
2022/04/09 11:53:07;;;;;;;8.73;1.35;;;7.60;99.90;;;;;;5052479;28;20116;-51
2022/04/09 11:55:33;;;;;;;7.80;1.92;;;7.80;99.90;;;;;;5052702;28;20363;-54
2022/04/09 11:57:59;;;;;;;9.27;1.20;;;7.90;99.90;;;;;;5052371;28;20043;-51
2022/04/09 12:00:30;;;;;;;6.05;1.27;;;8.10;99.90;;;;;;5052577;28;20037;-51
2022/04/09 12:03:05;;;;;;;6.63;1.35;;;7.90;99.90;;;;;;5067839;28;20041;-50
2022/04/09 12:05:39;;;;;;;5.25;1.55;;;8.00;99.90;;;;;;5069852;28;20378;-52
2022/04/09 12:08:15;;;;;;;5.82;1.00;;;8.20;99.90;;;;;;5071211;28;20086;-53
2022/04/09 12:10:54;;;;;;;9.63;1.23;;;8.60;99.90;;;;;;5072549;28;20037;-53
2022/04/09 12:13:34;;;;;;;7.50;1.15;;;8.40;99.90;;;;;;5072440;28;20048;-52
2022/04/09 12:16:01;;;;;;;7.90;1.40;;;8.30;99.90;;;;;;5072185;28;20119;-54
2022/04/09 12:18:31;;;;;;;8.98;1.30;;;8.30;99.90;;;;;;5072291;28;20520;-53
2022/04/09 12:20:57;;;;;;;6.68;1.95;;;8.00;99.90;;;;;;5071012;28;20555;-52
2022/04/09 12:23:31;;;;;;;10.77;1.50;;;8.10;99.90;;;;;;5065960;28;20076;-53
2022/04/09 12:25:57;;;;;;;7.72;1.50;;;8.00;99.90;;;;;;5051100;28;20058;-51
2022/04/09 12:28:24;;;;;;;8.90;1.25;;;7.90;99.90;;;;;;5051803;28;20308;-53
2022/04/09 12:30:53;;;;;;;8.15;1.30;;;8.00;99.90;;;;;;5051931;28;20481;-53
2022/04/09 12:33:20;;;;;;;7.22;1.40;;;7.70;99.90;;;;;;5051879;28;20063;-52
2022/04/09 12:35:46;;;;;;;8.57;1.52;;;7.70;99.90;;;;;;5051884;28;20037;-53
2022/04/09 12:38:30;;;;;;;8.73;1.85;;;7.50;99.90;;;;;;5051886;28;20048;-53
2022/04/09 12:41:01;;;;;;;12.50;1.83;;;7.50;99.90;;;;;;5050501;28;20558;-51
2022/04/09 12:43:47;;;;;;;8.60;1.35;;;7.70;99.90;;;;;;5051991;28;20041;-54
2022/04/09 12:46:18;;;;;;;9.35;1.95;;;7.90;99.90;;;;;;5067183;28;20091;-54
2022/04/09 12:48:51;;;;;;;7.97;1.80;;;7.90;99.90;;;;;;5051709;28;20124;-53
2022/04/09 12:51:19;;;;;;;8.27;2.17;;;7.80;99.90;;;;;;5051621;28;20116;-54
2022/04/09 12:53:48;;;;;;;13.18;1.52;;;7.60;99.90;;;;;;5051758;28;20497;-53
2022/04/09 12:56:16;;;;;;;7.15;1.65;;;8.00;99.90;;;;;;5050694;28;20045;-53